x

8413320 - Bar Harbor, Me (atgm1) Weather Station

1:30 - Sun 3rd May 2015 All times are EDT. -4 hours from GMT.

  • Wind
    3mph, 11mph gusts
  • Sea Temp 44°f
  • Luft Temp 56°f
  • Sea Pressure 1018.1mb
  • 8413320 - Bar Harbor, Me
  • 8413320 - Bar Harbor, Me

More Historic Weather Station data

Upgrade to MSW Pro to gain access to the past 30 days of data for over 8000 Wavebouys and Weather Stations around the globe.

Join Pro

Comparision Forecast

View Surf forecast
   
So 05/03 1:30 3 11 mph 1018.1mb 44f 56f
1:24 2 8 mph 1018.1mb 44f 54f
1:18 3 7 mph - - -
1:12 2 7 mph 1018.1mb 44f 53f
1:06 2 7 mph 1018mb 43f 52f
1:00 3 7 mph 1017.9mb 43f 53f
12:54 5 9 mph 1018mb 43f 51f
12:48 7 13 mph 1018mb 43f 56f
12:42 5 9 mph 1018.1mb 43f 55f
12:36 2 9 mph 1018.1mb 43f 55f
12:24 6 8 mph 1018.1mb 43f 51f
12:18 8 9 mph 1018.1mb - -
12:12 8 10 mph 1018.2mb 42f 50f
12:06 5 8 mph 1018.2mb 42f 51f
12:00 6 11 mph 1018.2mb 42f 50f
11:54 9 10 mph 1018.2mb 42f 49f
11:48 7 10 mph 1018.2mb 42f 50f
11:42 7 8 mph 1018.2mb 43f 49f
11:36 6 8 mph 1018.2mb 42f 47f
11:30 6 8 mph 1018.3mb 42f 46f
11:24 5 6 mph 1018.3mb 42f 45f
11:18 6
mph
1018.3mb 42f 44f
11:12 3 6 mph 1018.3mb 42f 44f
11:06 6
mph
1018.3mb 42f 44f
11:00 3 7 mph 1018.3mb 42f 43f
10:54 6
mph
1018.4mb 42f 43f
10:48 5 6 mph 1018.4mb 42f 43f
10:42 5 6 mph 1018.4mb 41f 43f
10:36 5 7 mph 1018.4mb 41f 43f
10:30 6 7 mph 1018.4mb 41f 43f
10:24 6
mph
1018.5mb 41f 43f
10:18 3 5 mph 1018.4mb 41f 44f
10:12 3 5 mph 1018.4mb 41f 43f
9:54 6 7 mph 1018.3mb 41f 43f
9:48 5 6 mph 1018.3mb 41f 43f
9:42 5 6 mph 1018.4mb 41f 43f
9:30 5 6 mph 1018.3mb 41f 43f
9:24 5
mph
1018.3mb 41f 42f
9:18 5 6 mph 1018.3mb 41f 42f
9:12 6 7 mph 1018.3mb 41f 42f
9:06 5 7 mph 1018.3mb 41f 42f
9:00 6 7 mph - - -
8:54 6 7 mph 1018.4mb 41f 42f
8:48 6 8 mph 1018.4mb 41f 41f
8:36 7 8 mph 1018.2mb 41f 42f
8:30 7 8 mph 1018.2mb 41f 42f
8:24 5 6 mph 1018.2mb 41f 43f
8:18 3 6 mph 1018.2mb 41f 43f
8:12 3 5 mph 1018.1mb 41f 43f
8:00 2 5 mph 1018.1mb 41f 43f
7:54 2 5 mph 1018mb 41f 43f
7:48 3 7 mph 1017.9mb 41f 42f
7:42 6 7 mph 1017.9mb 41f 42f
7:36 3
mph
1017.8mb 41f 42f
7:30 2 3 mph 1017.8mb 41f 42f
7:24 1 2 mph 1017.8mb 41f 42f
7:18  -  3 mph 1017.7mb 41f 43f
7:12 1 5 mph 1017.6mb 41f 43f
7:06 3 5 mph 1017.5mb 41f 41f
7:00 2 6 mph 1017.5mb 41f 41f
6:54 3 5 mph 1017.5mb 41f 41f
6:48 5
mph
1017.5mb 41f 41f
6:42 2 3 mph 1017.4mb 41f 41f
6:36 1 2 mph 1017.3mb 41f 42f
6:30  -  2 mph 1017.2mb 41f 42f
6:24 1 3 mph 1017.2mb 41f 42f
6:18 1 3 mph 1017.1mb 41f 42f
6:12  -  2 mph 1017mb 41f 42f
6:06 3 5 mph 1016.9mb 41f 41f
6:00 3 5 mph 1016.9mb 41f 40f
5:54 3 5 mph 1016.7mb 41f 40f
5:48 2 3 mph 1016.6mb 41f 40f
5:42  -  1 mph 1016.5mb 41f 40f
5:36  -  1 mph 1016.4mb 41f 40f
5:30 1 3 mph 1016.3mb 41f 40f
5:24 1 3 mph 1016.3mb 41f 40f
5:18 1 3 mph 1016.2mb 41f 41f
5:12  -  2 mph 1016.2mb 41f 41f
5:06  -  2 mph 1016.2mb 41f 41f
5:00 1 3 mph 1016.2mb 41f 41f
4:54 3 6 mph 1016.2mb 41f 40f
4:48 1 3 mph 1016.2mb 41f 41f
4:42 2 3 mph 1016.2mb 41f 41f
4:36 2 3 mph 1016.2mb 41f 41f
4:30  -  1 mph 1016.2mb 41f 41f
4:24  -  1 mph 1016.3mb 41f 41f
4:18  -  2 mph 1016.3mb 41f 41f
4:12 2
mph
1016.3mb 41f 41f
4:06 2 5 mph 1016.2mb 41f 41f
4:00 2 3 mph 1016.1mb 41f 41f
3:54 2
mph
1016.2mb 41f 41f
3:48  -  2 mph 1016.2mb 41f 41f
3:42  -  mph 1016.1mb 41f 41f
3:36  -  3 mph 1016.1mb 41f 41f
3:30 3 5 mph 1016.1mb 41f 41f
3:24 3 6 mph 1016mb 41f 41f
3:18 6 7 mph 1016mb 41f 41f
3:12 1 6 mph 1016mb 41f 41f
3:06 5 7 mph 1016mb 41f 40f
3:00 6 8 mph 1016mb 41f 40f
2:42 3 6 mph 1016mb 41f 40f
2:24 3 5 mph 1016mb - -
2:12 2 3 mph 1016.1mb 41f 41f
1:54 3 6 mph 1016.1mb 41f 42f
1:48  -  2 mph 1016.1mb 41f 41f
1:42  -  1 mph 1016.2mb 41f 40f
1:36  -  1 mph 1016.3mb 41f 40f
1:30  -  mph 1016.3mb 41f 40f
1:24  -  2 mph 1016.3mb 41f 40f
1:18 2
mph
1016.2mb 41f 40f
1:12  -  2 mph 1016.1mb 41f 40f
1:06  -  2 mph 1016mb 41f 40f
1:00 1 2 mph 1016mb 41f 40f
12:54  -  1 mph 1016.1mb 41f 40f
12:48  -  2 mph 1016.1mb 41f 40f
12:42 1 2 mph 1016.1mb 41f 40f
12:36 1 2 mph 1016.2mb 41f 40f
12:30 1 2 mph 1016.2mb 41f 40f
12:24 1 2 mph 1016.2mb 41f 40f
12:18  -  1 mph 1016.2mb 41f 40f
12:12 2
mph
1016.2mb 41f 40f
Sa 05/02 11:54 2 3 mph 1016.3mb 42f 41f
11:48 2
mph
1016.3mb 42f 40f
11:42  -  mph 1016.3mb 42f 40f
11:36  -  2 mph 1016.3mb 42f 41f
11:30 2 3 mph 1016.3mb 42f 40f
11:24 1 3 mph 1016.3mb 42f 41f
11:18 2 3 mph 1016.3mb 41f 41f
11:12 2 3 mph 1016.3mb 41f 41f
11:06  -  2 mph 1016.3mb 42f 41f
11:00 2 3 mph - - -
10:54 2 3 mph 1016.3mb 42f 41f
10:48 5 6 mph 1016.3mb 42f 41f
10:42 2 3 mph 1016.3mb 42f 42f
10:36  -  2 mph 1016.3mb 41f 41f
10:30 2
mph
- - -
10:24  -  2 mph 1016.3mb 41f 42f
10:18 2 5 mph 1016.2mb 41f 42f
10:12 5 7 mph 1016.1mb 41f 42f
10:06 6
mph
1016.1mb 41f 42f
10:00 5 6 mph 1016mb 41f 42f
9:42  -  2 mph 1015.9mb 41f 42f
9:36 1 3 mph 1015.9mb 41f 42f
9:30 1 3 mph 1015.9mb 41f 42f
9:24 3
mph
1015.7mb 41f 43f
9:18 2
mph
1015.7mb 41f 43f
9:12  -  2 mph 1015.7mb 41f 43f
9:06 1 2 mph 1015.6mb 41f 43f
9:00  -  2 mph 1015.7mb 41f 43f
8:54 2 6 mph 1015.6mb 41f 43f
8:48 3 6 mph 1015.6mb 41f 44f
8:42 2 5 mph 1015.5mb 41f 44f
8:36 2 3 mph 1015.5mb 41f 44f
8:30 2 3 mph 1015.4mb 41f 45f
8:24 1 2 mph 1015.4mb 41f 45f
8:18 1
mph
1015.4mb 41f 44f
8:12  -  1 mph 1015.3mb 41f 45f
8:06 1 2 mph 1015.2mb 41f 45f
8:00 1 2 mph 1015.2mb 41f 45f
7:54  -  1 mph 1015.1mb 41f 45f
7:48  -  1 mph 1015.1mb 41f 46f
7:42 2 3 mph 1015.1mb 41f 46f
7:36 2 5 mph 1015.1mb 41f 46f
7:30 3 5 mph 1015.1mb 41f 46f
7:24 1 2 mph 1015.1mb 41f 47f
7:18 1 3 mph 1015mb 41f 47f
7:12  -  2 mph 1015mb 41f 48f
7:06 1 3 mph 1014.9mb 42f 48f
7:00 2 6 mph 1014.8mb 42f 47f
6:54 5 8 mph 1014.8mb 42f 47f
6:48 7 9 mph 1014.8mb 42f 46f
6:42 5 6 mph 1014.7mb 42f 47f
6:36 6 7 mph 1014.6mb 42f 47f
6:30 3 8 mph 1014.5mb 42f 48f
6:24 6 8 mph 1014.6mb 42f 46f
6:18 8 9 mph 1014.5mb 42f 46f
6:12 9 10 mph 1014.5mb 42f 46f
6:06 9 11 mph 1014.4mb 42f 46f
6:00 7 10 mph 1014.4mb 42f 48f
5:54 8 10 mph 1014.4mb 42f 47f
5:48 6 8 mph 1014.4mb 42f 49f
5:42 5 8 mph 1014.4mb 42f 50f
5:36 7 10 mph 1014.4mb 42f 49f
5:30 6 9 mph 1014.5mb 42f 49f
5:24 6 10 mph 1014.5mb 42f 48f
5:18 8 13 mph 1014.6mb 42f 47f
5:12 11 14 mph 1014.5mb 42f 46f
5:06 10 14 mph 1014.5mb 42f 46f
5:00 10 15 mph 1014.5mb 42f 46f
4:54 10 14 mph 1014.5mb 42f 46f
4:48 10 15 mph 1014.4mb 42f 46f
4:36 11 15 mph 1014.3mb 43f 46f
4:30 11 15 mph 1014.3mb 43f 46f
4:24 11 16 mph 1014.3mb 43f 46f
4:18 13 16 mph 1014.4mb 43f 45f
4:12 13 16 mph 1014.5mb 43f 45f
4:06 13 15 mph 1014.5mb 43f 44f
4:00 13 15 mph 1014.5mb 43f 45f
3:54 13 15 mph 1014.6mb 43f 44f
3:48 13 18 mph 1014.6mb 43f 44f
3:42 13 16 mph 1014.6mb 43f 45f
3:36 14 15 mph 1014.6mb 42f 44f
3:30 13 17 mph 1014.7mb 42f 44f
3:24 16 21 mph 1014.6mb 42f 43f
3:18 15 21 mph 1014.7mb 42f 43f
3:12 15 21 mph 1014.8mb 42f 42f
3:06 16 21 mph 1014.9mb 42f 42f
3:00 16 21 mph 1014.9mb 42f 42f
2:54 17 21 mph 1014.8mb 42f 42f
2:48 18 22 mph - - -
2:42 20 21 mph 1015mb 42f 42f
2:36 16 22 mph 1015.1mb 42f 42f
2:30 17 22 mph 1015.1mb 42f 42f
2:24 18 22 mph 1015.2mb 42f 41f
2:18 18 22 mph - - -
2:12 18 21 mph 1015.2mb 41f 41f
2:06 17 21 mph 1015.2mb 41f 41f
2:00 17 21 mph 1015.2mb 41f 41f
1:54 17 21 mph 1015.3mb 41f 41f
1:48 17 20 mph 1015.4mb 41f 41f
1:42 16 21 mph 1015.3mb 41f 41f
1:36 17 20 mph 1015.4mb 41f 41f
1:30 17 20 mph 1015.4mb 41f 41f
1:24 16 20 mph 1015.4mb 41f 41f
1:18 15 20 mph 1015.4mb 41f 41f
1:12 15 21 mph 1015.4mb 41f 41f
1:06 15 20 mph 1015.5mb 41f 41f
1:00 15 18 mph 1015.5mb 41f 41f
12:48 16 20 mph 1015.5mb 41f 41f
12:42 16 18 mph 1015.6mb 41f 40f
12:36 16 20 mph 1015.6mb 41f 40f
12:30 18 21 mph 1015.6mb 41f 40f
12:24 17 21 mph 1015.7mb 41f 40f
12:18 15 20 mph 1015.7mb 41f 40f
12:12 16 20 mph 1015.8mb 41f 40f
12:06 18 21 mph 1015.9mb 41f 40f
12:00 18 20 mph 1015.9mb 41f 40f
11:54 16 18 mph 1016mb 41f 40f
11:48 16 18 mph 1015.9mb 41f 40f
11:42 17 18 mph 1016mb 41f 40f
11:36 16 18 mph 1016mb 41f 40f
11:30 15 18 mph 1016.1mb 41f 40f
11:24 14 17 mph 1016.2mb 41f 40f
11:18 14 18 mph 1016.2mb 41f 40f
11:12 14 17 mph 1016.2mb 41f 40f
11:00 15 18 mph 1016.2mb 41f 40f
10:54 13 17 mph 1016.3mb 41f 40f
10:48 14 17 mph 1016.3mb 41f 40f
10:42 13 17 mph 1016.2mb 41f 40f
10:36 14 16 mph 1016.3mb 41f 40f
10:18 11 15 mph 1016.4mb 41f 40f
10:12 11 14 mph 1016.4mb 40f 40f
10:06 10 15 mph 1016.5mb 40f 40f
10:00 13 15 mph 1016.6mb 40f 40f
9:54 10 14 mph 1016.6mb 40f 40f
9:48 11 14 mph 1016.5mb 40f 40f
9:36 10 13 mph 1016.6mb 40f 40f
9:30 10 13 mph - - -
9:18 9 10 mph 1016.7mb 40f 40f
9:12 9 10 mph 1016.7mb 40f 40f
9:06 8 9 mph 1016.7mb 40f 40f
9:00 8 9 mph 1016.7mb 40f 40f
8:54 7 8 mph 1016.7mb 40f 40f
8:48 7
mph
1016.8mb 40f 40f
8:36 3 5 mph 1016.8mb 40f 40f
8:30 3
mph
1016.9mb 40f 40f
8:24 2 3 mph 1016.8mb 40f 40f
8:18 2
mph
1016.8mb 40f 40f
8:12 2
mph
1016.8mb 40f 40f
8:06 2
mph
1016.8mb 40f 40f
8:00 2 3 mph 1016.9mb 40f 40f
7:54 2
mph
1016.9mb 40f 40f
7:48 2 3 mph 1016.9mb 40f 39f
7:42 3 5 mph 1016.8mb 40f 39f
7:36 5
mph
1016.8mb 40f 39f
7:30 5
mph
1016.8mb 40f 39f
7:24 3
mph
1016.8mb 40f 39f
7:18 2 3 mph 1016.7mb 40f 39f
7:12 2
mph
1016.6mb 40f 39f
7:06 1 2 mph 1016.6mb 40f 40f
7:00  -  1 mph 1016.5mb 40f 41f
6:54  -  1 mph 1016.5mb 40f 41f
6:48 1 2 mph 1016.5mb 40f 38f
6:42  -  1 mph 1016.5mb 40f 38f
6:36 1 2 mph 1016.5mb 40f 38f
6:30 2
mph
1016.5mb 40f 37f
6:24 2
mph
1016.6mb 40f 38f
6:18 1 2 mph 1016.5mb - -
6:12 2
mph
1016.4mb 40f 37f
5:42  -  1 mph 1016.2mb 40f 35f
5:36  -  mph 1016.1mb 40f 35f
5:24 1 2 mph 1016.1mb 40f 35f
5:18 2
mph
1016.1mb 40f 35f
5:12 2
mph
1016mb 40f 35f
5:06 1 2 mph 1016mb 40f 35f
5:00 1 2 mph 1016mb 40f 35f
4:54 1 2 mph 1015.9mb 40f 35f
4:42  -  1 mph 1015.9mb 40f 35f
4:36  -  1 mph 1015.9mb 41f 35f
4:30  -  1 mph 1015.9mb 41f 35f
4:24  -  1 mph 1015.9mb 41f 35f
4:18  -  2 mph 1015.9mb 41f -
4:12 1
mph
1015.9mb 41f 36f
4:06 2
mph
1016mb 41f 35f
4:00 1 2 mph 1016mb 41f 35f
3:54  -  mph 1016.1mb 41f 35f
3:48  -  mph 1016.1mb 41f 36f
3:30 2
mph
1016.2mb 41f 36f
3:24 1 2 mph 1016.2mb 41f 36f
3:18  -  1 mph 1016.3mb 41f 36f
3:12  -  1 mph 1016.4mb 41f 36f
3:06  -  1 mph 1016.4mb 41f 36f
3:00  -  2 mph 1016.4mb 41f -
2:54 2
mph
1016.4mb 41f 36f
2:48  -  1 mph 1016.4mb 41f 36f
2:36 1 2 mph 1016.3mb 41f 36f
2:24 1 2 mph 1016.3mb 41f 36f
1:54  -  1 mph 1016.3mb 41f 36f
1:48 1 2 mph - - -
1:36  -  1 mph 1016.3mb 41f 36f
1:30  -  2 mph 1016.3mb 41f 36f
1:24 2
mph
1016.3mb 41f 36f
1:06  -  2 mph 1016.4mb 41f 36f
1:00  -  2 mph 1016.3mb 41f 36f
12:54 2 3 mph 1016.3mb 41f 36f
12:48 2 3 mph 1016.4mb 41f 36f
12:42 1 2 mph 1016.5mb 41f 37f
12:30  -  1 mph 1016.5mb - -
12:24  -  2 mph 1016.5mb 41f 37f
12:18 1 2 mph 1016.5mb 41f 37f
12:12  -  1 mph 1016.5mb 41f 37f
12:06  -  mph 1016.5mb 41f 37f
12:00  -  mph 1016.5mb 41f 37f
Fr 05/01 11:54  -  mph 1016.5mb 41f 37f
11:42  -  mph 1016.4mb 41f 38f
11:36  -  1 mph 1016.4mb 41f 38f
11:30  -  2 mph 1016.5mb 41f 38f
11:24 1 2 mph 1016.5mb 42f 38f
11:18 2 3 mph 1016.5mb 41f 38f
11:12  -  1 mph 1016.5mb 41f 38f
11:06  -  1 mph 1016.5mb 41f 38f
10:54 1 2 mph 1016.5mb 41f 38f
10:48 2 3 mph 1016.6mb 41f 38f
10:42 3
mph
1016.6mb 40f 38f
10:36 3 5 mph 1016.6mb 40f 38f
10:30 2 3 mph 1016.6mb 40f 39f
10:24 2 3 mph 1016.5mb 40f 39f
10:18 2 3 mph 1016.5mb 40f 39f
10:12 2 3 mph 1016.5mb 40f 39f
10:06 1 2 mph 1016.5mb 40f 39f
10:00 1 3 mph 1016.5mb 40f 40f
9:54 2
mph
1016.5mb 40f 40f
9:48 1 2 mph 1016.5mb 40f 40f
9:42 1 2 mph 1016.5mb 40f 41f
9:36  -  1 mph 1016.5mb 40f 41f
9:30  -  2 mph 1016.5mb 40f 41f
9:24  -  5 mph 1016.5mb 40f 42f
9:18  -  2 mph 1016.4mb 40f 42f
9:12 2 3 mph 1016.4mb 40f 42f
9:06 1 3 mph 1016.3mb 40f 41f
9:00 2 5 mph 1016.3mb 40f 41f
8:54 2 7 mph 1016.2mb 40f 42f
8:48 3 5 mph 1016.2mb 40f 42f
8:42 3 5 mph 1016.1mb 40f 41f
8:36 2 5 mph 1016mb 40f 41f
8:30 3 6 mph 1016mb 40f 41f
8:24 3 6 mph 1016mb 40f 41f
8:18 3 5 mph 1015.9mb 40f 41f
8:12 3 6 mph 1016mb 40f 42f
8:06 5 6 mph 1015.9mb 40f 42f
8:00 3 5 mph 1015.9mb 40f 42f
7:54 3 7 mph 1015.8mb 40f 42f
7:48 6 8 mph 1015.7mb 40f 42f
7:42 7 8 mph 1015.7mb 40f 42f
7:36 7 8 mph 1015.7mb 40f 42f
7:30 6 7 mph 1015.6mb 41f 42f
7:24 3 6 mph 1015.6mb 41f 43f
7:18 3 7 mph 1015.5mb 41f 44f
7:12 6 8 mph 1015.5mb 41f 44f
7:06 3 9 mph 1015.4mb 41f 44f
7:00 5 7 mph 1015.5mb 41f 44f
6:54 5 8 mph 1015.5mb 41f 44f
6:48 5 6 mph 1015.5mb 41f 44f
6:42 5 8 mph 1015.4mb 41f 44f
6:36 3 8 mph 1015.3mb 41f 44f
6:30 7 9 mph 1015.3mb 41f 43f
6:24 8 10 mph 1015.3mb 41f 43f
6:18 8 11 mph 1015.2mb 41f 43f
6:12 10 11 mph 1015.2mb 42f 42f
6:00 8 11 mph 1015.2mb 42f 43f
5:54 8 13 mph 1015.2mb 42f 43f
5:48 10 14 mph 1015.2mb 42f 42f
5:42 11 13 mph 1015.3mb 42f 42f
5:36 9 13 mph 1015.2mb 42f 43f
5:30 10 14 mph 1015.2mb 42f 43f
5:24 10 14 mph 1015.2mb 42f 43f
5:18 10 13 mph 1015.2mb 42f 43f
5:12 10 14 mph 1015.2mb 42f 43f
5:06 13 15 mph 1015.2mb 42f 42f
5:00 11 15 mph 1015.1mb 42f 42f
4:54 10 16 mph 1015.1mb 42f 43f
4:48 13 16 mph 1015.1mb - -
4:42 11 16 mph 1015.1mb 42f 42f
4:36 13 16 mph 1015.1mb 42f 42f
4:30 13 16 mph 1015.1mb 42f 43f
4:24 14 16 mph 1015.1mb 42f 42f
4:18 13 16 mph 1015.1mb 42f 42f
4:12 13 15 mph 1015.2mb 42f 42f
4:06 10 17 mph 1015.2mb 42f 42f
4:00 13 16 mph 1015.2mb 42f 42f
3:54 11 17 mph 1015.2mb 42f 42f
3:48 11 17 mph 1015.3mb 42f 42f
3:42 11 16 mph 1015.3mb 42f 42f
3:36 13 16 mph 1015.4mb 42f 42f
3:30 13 16 mph 1015.4mb 42f 43f
3:24 10 16 mph 1015.5mb 42f 43f
3:18 13 17 mph 1015.5mb 42f 42f
3:12 10 16 mph 1015.5mb 42f 42f
3:06 8 14 mph 1015.6mb 42f 43f
3:00 10 16 mph 1015.7mb 42f 42f
2:48 11 17 mph 1015.7mb 42f 42f
2:42 9 14 mph 1015.7mb 42f 43f
2:36 9 14 mph 1015.7mb 42f 42f
2:30 8 14 mph 1015.6mb 42f 42f
2:24 11 16 mph 1015.6mb 42f 42f
2:18 13 16 mph 1015.6mb 42f -
2:12 11 16 mph 1015.7mb 42f 42f
1:54 11 17 mph 1015.8mb 42f 41f
1:48 10 17 mph - - -
1:42 14 17 mph 1015.8mb 42f 41f
1:36 13 17 mph 1015.8mb 42f 41f
1:30 10 18 mph 1015.8mb 42f 41f
1:24 11 16 mph 1015.8mb 42f 41f
1:18 10 17 mph 1015.7mb 42f 41f
1:12 11 17 mph 1015.8mb 42f 40f
1:06 13 18 mph 1015.8mb 42f 40f
1:00 13 17 mph 1015.8mb 42f 40f
12:54 13 18 mph 1015.9mb 42f 40f
12:48 13 18 mph 1015.9mb 42f 40f
12:42 10 16 mph 1015.9mb 42f 40f
12:36 13 16 mph 1015.9mb 41f 40f
12:30 11 16 mph 1015.9mb 41f 40f
12:24 10 17 mph 1015.9mb 41f 40f
12:18 11 17 mph 1015.9mb 41f 40f
12:12 10 16 mph 1015.9mb 41f 40f
12:06 10 16 mph 1015.9mb 41f 40f
12:00 10 17 mph 1015.9mb 41f 41f
11:54 11 15 mph 1016mb 41f 40f
11:48 11 16 mph 1016.1mb 41f 40f
11:42 11 17 mph 1016.1mb 41f 40f
11:36 13 17 mph 1016.2mb 41f 40f
11:30 13 18 mph 1016.1mb 41f 40f
11:24 14 18 mph 1016.1mb 41f 40f
11:18 13 15 mph 1016.1mb 41f 40f
11:12 11 16 mph 1016.2mb 41f 40f
11:06 15 17 mph 1016.3mb 41f 40f
11:00 9 15 mph 1016.2mb 41f 41f
10:54 13 16 mph 1016.2mb 41f 40f
10:48 10 16 mph 1016.1mb 41f 41f
10:42 11 16 mph 1016.2mb 41f 40f
10:36 11 14 mph 1016.2mb 41f 41f
10:18 3 5 mph 1016.1mb 41f 44f
10:12 5 6 mph 1016.2mb 41f 44f
10:06 6 8 mph 1016.2mb 41f 44f
10:00 6 8 mph 1016.2mb 41f 43f
9:54 6 7 mph 1016.2mb 41f 43f
9:48 6 9 mph 1016.2mb 41f 43f
9:42 7 9 mph 1016.3mb 41f 43f
9:36 6 9 mph 1016.3mb 41f 43f
9:30 6 8 mph 1016.2mb 41f 42f
9:18 7 9 mph 1016.3mb 41f 42f
9:12 8 9 mph 1016.4mb 41f 42f
9:06 7 10 mph 1016.3mb 41f 42f
9:00 7 9 mph 1016.3mb 41f 42f
8:54 7 8 mph 1016.3mb 41f 41f
8:48 7 9 mph 1016.3mb 40f 41f
8:42 8 10 mph 1016.3mb 41f 41f
8:36 7 8 mph 1016.3mb 41f 41f
8:30 7 9 mph 1016.3mb 40f 40f
8:24 7 9 mph 1016.3mb 40f 40f
8:18 5 6 mph 1016.4mb 40f 40f
8:12 6 7 mph 1016.4mb 41f 40f
8:06 6 8 mph 1016.5mb 41f 40f
8:00 6 8 mph 1016.5mb 41f 40f
7:54 6 8 mph 1016.4mb 41f 39f
7:48 5 7 mph 1016.3mb 40f 39f
7:42 6 8 mph 1016.3mb 40f 39f
7:36 6 9 mph 1016.3mb 40f 39f
7:30 7 8 mph 1016.3mb 40f 39f
7:24 8 9 mph 1016.3mb 40f 39f
7:18 7 9 mph 1016.2mb 40f 39f
7:12 8 10 mph 1016.2mb 40f 38f
7:06 7 10 mph 1016.2mb 41f 38f
7:00 7 10 mph 1016.1mb 41f 38f
6:54 8 10 mph 1016.1mb 41f 38f
6:48 6 9 mph 1016.2mb 41f 38f
6:42 5 7 mph 1016.2mb 41f 39f
6:36 8 9 mph 1016.1mb 41f 38f
6:30 6 8 mph 1016.1mb 41f 38f
6:24 3 6 mph 1016.1mb 41f 38f
6:18 3 8 mph 1016.1mb 41f 38f
6:12 6 8 mph 1015.9mb 41f 38f
6:06 6 9 mph 1015.9mb 41f 38f
6:00 5 9 mph 1015.9mb 41f 38f
5:54 3 9 mph 1015.9mb 41f 38f
5:48 5 7 mph 1015.8mb 41f 38f
5:42 7 9 mph 1015.7mb 41f 38f
5:36 6 8 mph 1015.6mb 41f 37f
5:30 5 8 mph 1015.6mb 41f 37f
5:24 6 8 mph 1015.5mb 41f 38f
5:18 6 9 mph 1015.4mb 41f 38f
5:12 6 7 mph 1015.4mb 41f 38f
5:06 6 8 mph 1015.4mb 41f 37f
5:00 7 9 mph 1015.4mb 41f 38f
4:54 6 8 mph 1015.5mb 42f 38f
4:48 6 8 mph - - -
4:30 7 10 mph 1015.5mb 42f 38f
4:24 7 10 mph 1015.5mb 42f 38f
4:18 7 9 mph 1015.5mb 42f 38f
4:12 7 10 mph 1015.5mb 42f 39f
4:06 6 10 mph 1015.4mb 42f 39f
4:00 7 10 mph 1015.3mb 42f 39f
3:54 6 9 mph 1015.3mb 42f 39f
3:48 5 10 mph 1015.2mb 42f 39f
3:42 7 9 mph 1015.3mb 42f 39f
3:36 7 9 mph 1015.2mb 42f 39f
3:30 6 10 mph 1015.2mb 42f 39f
3:12 6 7 mph 1015.2mb 42f -
3:00 5 8 mph 1015.2mb 42f 39f
2:18 6 13 mph 1015.1mb 42f 40f
1:54 8 9 mph 1015.4mb 42f 40f
1:48 8 10 mph 1015.3mb 42f 41f
1:42 7 9 mph 1015.4mb 42f 41f
1:36 8 11 mph 1015.4mb 42f 41f
1:30 8 13 mph 1015.5mb 42f 41f
1:24 9 13 mph 1015.5mb 42f 41f
1:18 13 18 mph 1015.5mb - -
1:12 14 18 mph 1015.5mb 42f 41f
1:06 9 16 mph 1015.5mb 42f 41f
1:00 10 14 mph 1015.5mb 42f 41f
12:54 7 13 mph 1015.5mb 42f 42f
12:48 10 15 mph 1015.5mb 42f -
12:42 7 10 mph 1015.5mb 42f 42f
12:36 5 9 mph 1015.6mb 42f 42f
12:30 6 9 mph 1015.6mb 42f 42f
12:24 7 9 mph 1015.6mb 42f 42f
12:18 8 9 mph 1015.6mb 42f 42f
12:12 8 14 mph 1015.5mb 42f 42f
12:06 11 14 mph 1015.5mb 41f 42f
12:00 11 15 mph 1015.5mb 41f 42f
Do 04/30 11:54 14 15 mph 1015.5mb 41f 42f
11:48 8 14 mph 1015.6mb 41f 42f
11:42 14 17 mph 1015.6mb 41f 42f
11:36 10 13 mph 1015.6mb 41f 42f
11:30 8 13 mph 1015.6mb 41f 42f
11:24 11 14 mph 1015.5mb 41f 43f
11:18 11 16 mph 1015.4mb 41f 43f
11:12 13 15 mph 1015.3mb 42f 43f
11:06 10 13 mph 1015.3mb 42f 43f
11:00 11 14 mph 1015.4mb 42f 43f
10:54 7 10 mph 1015.4mb 41f 43f
10:48 9 13 mph 1015.4mb 41f 44f
10:42 7 15 mph 1015.4mb 41f 43f
10:36 11 15 mph 1015.3mb 41f 44f
10:30 11 15 mph 1015.2mb 41f 44f
10:24 11 15 mph 1015.2mb 41f 44f
10:18 11 14 mph 1015.2mb 41f 44f
10:12 6 7 mph 1015.2mb 41f 44f
10:06 3 7 mph 1015.1mb 41f 43f
10:00 6 9 mph 1015.1mb 41f 44f
9:54 6 10 mph 1015.1mb 41f 44f
9:48 10 13 mph 1015mb 41f 44f
9:42 10 16 mph 1015mb 41f 45f
9:36 14 20 mph 1014.9mb 42f 45f
9:30 15 18 mph 1015mb 42f 45f
9:24 13 15 mph 1014.9mb 42f 45f
9:18 10 15 mph 1014.9mb 42f 44f
9:12 13 15 mph 1014.8mb 42f 45f
9:06 9 10 mph 1014.7mb 41f 44f
9:00 9 13 mph 1014.6mb 41f 44f
8:54 11 14 mph 1014.6mb 41f 45f
8:48 13 16 mph 1014.5mb 41f 45f
8:42 15 18 mph 1014.4mb 41f 45f
8:36 15 18 mph 1014.3mb 41f 45f
8:30 15 17 mph 1014.2mb 41f 45f
8:24 16 18 mph 1014.1mb 41f 46f
8:18 8 13 mph 1013.9mb 40f 45f
8:12 13 16 mph 1013.9mb 40f 45f
8:06 11 16 mph 1013.8mb 40f 46f
8:00 14 16 mph 1013.7mb 40f 46f
7:54 8 9 mph 1013.7mb 40f 45f
7:48 7 9 mph 1013.6mb 40f 45f
7:42 8 13 mph 1013.6mb 40f 46f
7:36 10 14 mph 1013.5mb 41f 46f
7:00 13 15 mph 1013mb 41f 46f
6:54 10 13 mph 1012.9mb 41f 46f
6:48 13 14 mph 1012.9mb 41f 46f
6:42 13 16 mph 1012.8mb 41f 46f
6:36 14 16 mph 1012.7mb 41f 47f
6:30 13 16 mph 1012.6mb 41f 47f
6:24 14 16 mph 1012.5mb 41f 47f
6:18 13 15 mph 1012.4mb 41f 47f
6:12 15 17 mph 1012.2mb 41f 47f
6:06 11 17 mph 1012.1mb 41f 47f
6:00 14 15 mph 1012.1mb 41f 48f
5:54 14 16 mph 1012mb 41f 48f
5:48 11 14 mph 1011.9mb 41f 48f
5:42 13 15 mph 1011.8mb 41f 48f
5:36 14 18 mph 1011.7mb 41f 49f
5:30 15 17 mph 1011.6mb 41f 49f
5:24 14 18 mph 1011.5mb 41f 51f
5:18 11 16 mph 1011.4mb 41f 49f
5:12 15 16 mph 1011.4mb 42f 50f
5:06 13 15 mph 1011.4mb 42f 49f
5:00 9 11 mph 1011.4mb 42f 49f
4:54 10 14 mph 1011.3mb 42f 50f
4:48 9 11 mph 1011.3mb 42f 50f
4:42 9 11 mph 1011.2mb 42f 49f
4:36 9 13 mph 1011.2mb 42f 49f
4:30 9 13 mph 1011.2mb 42f 49f
4:24 9 10 mph 1011.1mb 43f 49f
4:18 7 9 mph 1011.1mb 43f 48f
4:12 7 9 mph 1011mb 43f 49f
4:06 8 9 mph 1011mb 43f 49f
4:00 7 9 mph 1010.9mb 43f 50f
3:54 8 11 mph 1010.8mb 42f 49f
3:48 10 13 mph 1010.9mb 42f 51f
3:42 9 13 mph 1010.9mb 42f 50f
3:36 7 10 mph 1011mb 42f 50f
3:30 7 9 mph 1011mb 42f 48f
3:24 6 7 mph 1011mb 42f 48f
2:42 11 14 mph 1010.8mb 42f 49f
2:36 10 14 mph 1010.8mb 42f 49f
2:30 13 16 mph 1010.8mb 42f 49f
2:24 13 15 mph 1010.9mb 42f 49f
2:18 13 14 mph 1010.9mb 42f 49f
2:12 10 13 mph 1010.8mb 41f 49f
2:06 11 13 mph 1010.8mb 41f 48f
2:00 13 14 mph 1010.8mb 41f 47f
1:54 9 11 mph 1010.9mb 41f 47f
1:48 8 10 mph 1010.9mb 41f 46f
1:42 10 13 mph 1010.8mb 41f 47f
1:36 8 13 mph 1010.8mb 41f 47f
1:30 9 13 mph 1010.7mb 41f 47f
1:24 10 13 mph 1010.6mb 41f 47f
1:18 9 10 mph 1010.6mb 41f 46f
1:12 7 10 mph 1010.5mb 41f 46f
1:06 10 13 mph 1010.5mb 41f 46f
1:00 11 14 mph 1010.5mb 41f 47f
12:54 14 16 mph 1010.5mb 41f 47f
12:48 9 15 mph 1010.5mb 41f 48f
12:42 9 16 mph 1010.5mb 41f 47f
12:36 11 14 mph 1010.5mb 41f 47f
12:30 9 11 mph 1010.4mb 41f 47f
12:24 7 10 mph 1010.4mb 41f 46f
12:18 10 13 mph 1010.4mb 41f 46f
12:12 11 15 mph 1010.3mb 41f 46f
12:06 11 14 mph 1010.3mb 41f 46f
12:00 11 13 mph 1010.3mb 41f 46f
11:54 10 15 mph 1010.3mb 41f 46f
11:48 13 15 mph 1010.3mb 41f 46f
11:42 8 13 mph 1010.4mb 41f 45f
11:36 11 14 mph 1010.3mb 41f 46f
11:30 10 14 mph 1010.3mb 41f 45f
11:24 11 13 mph 1010.3mb 41f 46f
11:18 9 11 mph 1010.3mb 41f 45f
11:12 8 13 mph 1010.2mb 41f 45f
11:06 11 13 mph 1010.1mb 41f 46f
11:00 10 15 mph 1010.1mb 41f 46f
10:54 13 16 mph 1010.1mb 41f 46f
10:48 15 18 mph 1010.1mb 41f 46f
10:42 13 15 mph 1010.2mb 41f 45f
10:36 13 16 mph 1010.1mb 41f 45f
10:30 15 17 mph 1010.1mb 41f 46f
10:24 11 16 mph 1010.1mb 42f 45f
10:18 14 16 mph 1010mb 41f 45f
10:12 13 18 mph 1009.9mb 41f 45f
10:06 11 18 mph 1009.8mb 41f 45f
10:00 14 18 mph 1009.7mb 40f 45f
9:54 14 17 mph 1009.8mb 40f 44f
9:48 16 21 mph 1009.8mb 40f 45f
9:42 16 23 mph 1009.9mb 40f 44f
9:36 15 17 mph 1009.7mb 40f 46f
9:30 11 14 mph 1009.7mb 40f 46f
9:24 6 8 mph 1009.6mb 40f 46f
9:18 5 9 mph 1009.6mb 40f 46f
9:12 6 14 mph 1009.6mb 40f 46f
9:06 6 13 mph 1009.6mb 40f 46f
9:00 7 13 mph 1009.5mb 40f 45f
8:54 6 13 mph 1009.4mb 40f 45f
8:48 6 11 mph 1009.5mb 40f 45f
8:42 6 11 mph 1009.4mb 40f 45f
8:36 8 11 mph 1009.4mb 40f 45f
8:30 7 11 mph 1009.4mb 40f 45f
8:24 8 11 mph 1009.3mb 40f 45f
8:18 7 9 mph 1009.3mb 40f 45f
8:12 6 9 mph 1009.4mb 40f 44f
8:06 7 13 mph 1009.4mb 40f 44f
8:00 8 13 mph 1009.3mb 40f 44f
7:54 7 10 mph 1009.4mb 40f 44f
7:48 7 10 mph 1009.4mb 40f 44f
7:42 7 10 mph 1009.3mb 40f 44f
7:36 8 10 mph 1009.4mb 40f 44f
7:30 8 11 mph 1009.3mb 40f 44f
7:24 8 10 mph 1009.2mb 40f 44f
7:18 8 10 mph 1009.2mb 40f 44f
7:12 7 9 mph 1009.1mb 40f 43f
7:06 8 10 mph 1009.1mb 40f 43f
7:00 7 8 mph 1009mb 40f 44f
6:54 6 10 mph 1008.9mb 40f 44f
6:48 6 13 mph 1008.9mb 40f 44f
6:42 8 11 mph 1008.9mb 40f 44f
6:30 8 14 mph 1008.8mb 40f 44f
6:24 6 14 mph 1008.9mb 40f 44f
6:18 7 13 mph 1008.9mb 40f 44f
6:12 9 15 mph 1008.8mb 40f 44f
6:06 8 15 mph 1008.7mb 40f 44f
6:00 10 16 mph 1008.6mb 40f 44f
5:54 9 16 mph 1008.5mb 40f 44f
5:48 11 15 mph 1008.4mb 40f 44f
5:42 11 14 mph 1008.3mb 40f 45f
5:36 13 14 mph 1008.2mb 40f 45f
5:30 11 14 mph 1008.2mb 40f 45f
5:24 11 14 mph 1008.1mb 40f 45f
5:18 13 14 mph 1008mb 40f 45f
5:12 13 14 mph 1007.9mb 40f 45f
5:06 10 13 mph 1007.9mb 40f 45f
5:00 10 14 mph 1007.9mb 40f 45f
4:54 11 14 mph 1007.8mb 40f 45f
4:48 11 14 mph 1007.8mb 40f 45f
4:42 13 14 mph 1007.9mb 40f 45f
4:36 13 15 mph 1007.8mb 40f 45f
4:30 13 15 mph 1007.8mb 40f 45f
4:24 14 16 mph 1007.8mb 40f 45f
4:18 13 15 mph 1007.8mb 40f 45f
4:12 14 15 mph 1007.8mb 41f 45f
4:06 11 14 mph 1007.8mb 41f 45f
4:00 11 14 mph 1007.9mb 41f 45f
3:54 11 14 mph 1007.9mb 41f 45f
3:48 10 11 mph 1007.9mb 41f 44f
3:42 10 13 mph 1007.9mb 41f 44f
3:36 11 14 mph 1007.8mb 41f 45f
3:30 11 14 mph 1007.8mb 41f 45f
3:24 10 13 mph 1007.9mb 41f 45f
3:12 10 14 mph 1007.9mb 41f 44f
3:00 9 11 mph 1007.8mb 41f 44f
2:54 9 11 mph 1007.8mb 41f 44f
2:48 9 11 mph 1007.8mb 41f 44f
2:42 10 13 mph 1007.8mb 41f 44f
2:36 10
mph
1007.9mb 41f 44f
2:30 9 11 mph 1007.9mb 41f 44f
2:18  -  mph 1008mb 41f 44f
2:12  -  mph 1008mb 41f 44f
2:06  -  mph 1007.9mb 41f 44f
2:00 9 11 mph 1008mb 41f 44f
1:54 10 13 mph 1008mb 41f 44f
1:48 10 14 mph 1008.1mb 41f 44f
1:42 11 13 mph 1008.2mb 41f 44f
1:36 10 13 mph 1008.2mb 41f 44f
1:30 9 10 mph 1008.2mb 41f 44f
1:24 10 11 mph 1008.3mb 41f 44f
1:18 10 13 mph 1008.3mb 41f 44f
1:12 10 13 mph 1008.3mb 41f 44f
1:06 10 11 mph 1008.4mb 41f 44f
1:00 9 11 mph 1008.4mb 41f 44f
12:54 10 11 mph 1008.5mb 41f 44f
12:48 9 10 mph 1008.5mb 41f 44f
12:42 8 9 mph 1008.5mb 41f 44f
12:36 7 8 mph 1008.6mb 41f 44f
12:30 8 10 mph 1008.5mb 41f 44f
12:18 7 8 mph 1008.6mb 41f 44f
12:12 7 8 mph 1008.7mb 41f 44f
Mi 04/29 11:54 7 8 mph 1008.7mb 41f 44f
11:42 5 6 mph 1008.7mb 41f 43f
11:36 5 7 mph 1008.7mb 41f 44f
11:30 5 6 mph 1008.7mb 41f 44f
11:24 3 5 mph 1008.7mb 41f 44f
11:18 3 6 mph 1008.8mb 41f 44f
11:12 5 7 mph 1008.9mb 41f 44f
11:06 6 9 mph 1009mb 41f 44f
11:00 6 11 mph 1009mb 41f 44f
10:54 10 13 mph 1009.1mb 41f 44f
10:48 11 14 mph 1009.2mb 41f 44f
10:42 11 14 mph 1009.2mb 41f 44f
10:36 9 13 mph 1009.2mb 41f 44f
10:30 8 9 mph 1009.2mb 41f 44f
10:24 7 11 mph 1009.1mb 41f 43f
10:18 10 14 mph 1009.1mb 41f 44f
10:12 14 17 mph 1009.1mb 41f 44f
10:06 13 16 mph 1009.2mb 41f 44f
10:00 15 21 mph 1009.1mb 40f 44f
9:54 18 23 mph 1009mb 40f 45f
9:48 18 22 mph 1008.9mb 40f 45f
9:42 14 22 mph 1008.8mb 40f 45f
9:36 13 15 mph 1008.7mb 40f 46f
9:30 14 18 mph 1008.6mb 40f 46f
9:24 11 14 mph 1008.5mb 40f 47f
9:18 9 11 mph 1008.5mb 40f 46f
9:12 8 10 mph 1008.4mb 40f 47f
9:06 6 9 mph 1008.3mb 40f 47f
9:00 6 7 mph 1008.2mb 40f 47f
8:54 6 8 mph 1008.2mb 40f 47f
8:48 7 8 mph 1008.1mb 41f 47f
8:42 6 7 mph 1008.1mb 41f 46f
8:36 6 9 mph 1008mb 42f 46f
8:30 6 7 mph 1008mb 41f 46f
8:24 7 8 mph 1008mb 41f 46f
8:18 8 9 mph 1007.9mb 41f 47f
8:12 7 9 mph 1007.8mb 41f 47f
8:06 8 11 mph 1007.7mb 41f 47f
8:00 10 13 mph 1007.5mb 40f 48f
7:54 11 13 mph 1007.4mb 40f 48f
7:48 10 13 mph 1007.4mb 40f 47f
7:42 8 10 mph 1007.3mb 40f 47f
7:36 10 14 mph 1007.2mb 40f 47f
7:30 14 17 mph 1007.2mb 40f 49f
7:24 8 13 mph 1007.1mb 40f 47f
7:18 8 13 mph 1007.1mb 40f 47f
7:12 10 14 mph 1007mb 40f 48f
7:06 14 15 mph 1007mb 40f 49f
7:00 9 11 mph 1006.8mb 40f 48f
6:54 10 11 mph 1006.8mb 40f 48f
6:48 1 3 mph 1006.6mb 40f 47f
6:42 1 3 mph 1006.6mb 40f 46f
6:36 1 7 mph 1006.6mb 40f 46f
6:30 6 9 mph 1006.5mb 40f 45f